Time,TemperatureF,DewpointF,PressureIn,WindDirection,WindDirectionDegrees,WindSpeedMPH,WindSpeedGustMPH,Humidity,HourlyPrecipIn,Conditions,Clouds,dailyrainin,SolarRadiationWatts/m^2,SoftwareType,DateUTC
2013-08-06 00:01:00,70.3,66.2,30.07,ESE,115,0.0,0.0,87,0.00,,,0.00,0,Wunderground v.1.15,2013-08-06 04:01:00,
2013-08-06 00:02:00,70.4,66.0,30.07,ESE,115,1.0,1.0,86,0.00,,,0.00,0,Wunderground v.1.15,2013-08-06 04:02:00,
2013-08-06 00:03:00,70.5,66.1,30.07,ESE,115,1.0,1.0,86,0.00,,,0.00,0,Wunderground v.1.15,2013-08-06 04:03:00,
2013-08-06 00:05:00,70.7,66.0,30.08,ESE,115,2.0,2.0,85,0.00,,,0.00,0,Wunderground v.1.15,2013-08-06 04:05:00,
2013-08-06 00:11:00,70.9,66.2,30.08,ESE,115,3.0,3.0,85,0.00,,,0.00,0,Wunderground v.1.15,2013-08-06 04:11:00,
2013-08-06 00:15:00,71.0,66.3,30.08,ESE,115,1.0,3.0,85,0.00,,,0.00,0,Wunderground v.1.15,2013-08-06 04:15:00,
2013-08-06 00:20:00,71.1,66.0,30.08,ESE,115,0.0,1.0,84,0.00,,,0.00,0,Wunderground v.1.15,2013-08-06 04:20:00,
2013-08-06 00:26:00,71.3,65.5,30.08,ESE,115,0.0,2.0,82,0.00,,,0.00,0,Wunderground v.1.15,2013-08-06 04:26:00,
2013-08-06 00:32:00,71.6,65.8,30.08,ESE,115,0.0,0.0,82,0.00,,,0.00,0,Wunderground v.1.15,2013-08-06 04:32:00,
2013-08-06 00:37:00,71.9,65.4,30.08,ESE,115,1.0,1.0,80,0.00,,,0.00,0,Wunderground v.1.15,2013-08-06 04:37:00,
2013-08-06 00:43:00,71.9,65.0,30.08,ESE,115,2.0,2.0,79,0.00,,,0.00,0,Wunderground v.1.15,2013-08-06 04:43:00,
2013-08-06 00:48:00,71.8,65.3,30.08,ESE,115,1.0,2.0,80,0.00,,,0.00,0,Wunderground v.1.15,2013-08-06 04:48:00,
2013-08-06 00:54:00,71.5,65.4,30.08,ESE,115,0.0,2.0,81,0.00,,,0.00,0,Wunderground v.1.15,2013-08-06 04:54:00,
2013-08-06 01:01:00,70.6,65.9,30.08,ESE,115,0.0,0.0,85,0.00,,,0.00,0,Wunderground v.1.15,2013-08-06 05:01:00,
2013-08-06 01:06:00,70.8,65.4,30.07,SSE,163,0.0,5.0,83,0.00,,,0.00,0,Wunderground v.1.15,2013-08-06 05:06:00,
2013-08-06 01:12:00,71.4,65.3,30.07,SSE,157,0.0,1.0,81,0.00,,,0.00,0,Wunderground v.1.15,2013-08-06 05:12:00,
2013-08-06 01:18:00,71.7,65.2,30.07,SSE,162,1.0,3.0,80,0.00,,,0.00,0,Wunderground v.1.15,2013-08-06 05:18:00,
2013-08-06 01:23:00,71.8,64.9,30.07,SSE,152,1.0,2.0,79,0.00,,,0.00,0,Wunderground v.1.15,2013-08-06 05:23:00,
2013-08-06 01:29:00,72.1,65.2,30.07,SSE,160,2.0,3.0,79,0.00,,,0.00,0,Wunderground v.1.15,2013-08-06 05:29:00,
2013-08-06 01:35:00,72.0,65.1,30.08,South,172,0.0,2.0,79,0.00,,,0.00,0,Wunderground v.1.15,2013-08-06 05:35:00,
2013-08-06 01:40:00,72.2,65.3,30.07,South,171,1.0,2.0,79,0.00,,,0.00,0,Wunderground v.1.15,2013-08-06 05:40:00,
2013-08-06 01:46:00,72.7,65.4,30.07,SE,146,1.0,3.0,78,0.00,,,0.00,0,Wunderground v.1.15,2013-08-06 05:46:00,
2013-08-06 01:51:00,73.0,65.7,30.07,SSE,147,2.0,2.0,78,0.00,,,0.00,0,Wunderground v.1.15,2013-08-06 05:51:00,
2013-08-06 01:57:00,73.0,65.4,30.07,SE,146,3.0,3.0,77,0.00,,,0.00,0,Wunderground v.1.15,2013-08-06 05:57:00,
2013-08-06 02:02:00,73.1,65.5,30.07,SE,142,2.0,2.0,77,0.00,,,0.00,0,Wunderground v.1.15,2013-08-06 06:02:00,
2013-08-06 02:07:00,73.1,65.5,30.07,SE,140,3.0,3.0,77,0.00,,,0.00,0,Wunderground v.1.15,2013-08-06 06:07:00,
2013-08-06 02:12:00,73.0,65.7,30.07,SE,140,1.0,3.0,78,0.00,,,0.00,0,Wunderground v.1.15,2013-08-06 06:12:00,
2013-08-06 02:17:00,72.6,65.7,30.06,SE,140,3.0,4.0,79,0.00,,,0.00,0,Wunderground v.1.15,2013-08-06 06:17:00,
2013-08-06 02:22:00,72.1,65.9,30.06,SSE,155,7.0,7.0,81,0.00,,,0.00,0,Wunderground v.1.15,2013-08-06 06:22:00,
2013-08-06 02:27:00,72.4,66.2,30.06,South,175,0.0,7.0,81,0.00,,,0.00,0,Wunderground v.1.15,2013-08-06 06:27:00,
2013-08-06 02:32:00,72.3,66.1,30.06,SSW,213,4.0,5.0,81,0.00,,,0.00,0,Wunderground v.1.15,2013-08-06 06:32:00,
2013-08-06 02:37:00,72.6,66.1,30.06,South,181,5.0,5.0,80,0.00,,,0.00,0,Wunderground v.1.15,2013-08-06 06:37:00,
2013-08-06 02:42:00,72.8,66.3,30.06,South,173,3.0,6.0,80,0.00,,,0.00,0,Wunderground v.1.15,2013-08-06 06:42:00,
2013-08-06 02:47:00,73.1,66.2,30.05,South,188,4.0,8.0,79,0.00,,,0.00,0,Wunderground v.1.15,2013-08-06 06:47:00,
2013-08-06 02:52:00,73.2,65.9,30.05,SSW,197,4.0,10.0,78,0.00,,,0.00,0,Wunderground v.1.15,2013-08-06 06:52:00,
2013-08-06 02:57:00,73.2,65.9,30.05,SSW,200,2.0,10.0,78,0.00,,,0.00,0,Wunderground v.1.15,2013-08-06 06:57:00,
2013-08-06 03:02:00,73.2,65.9,30.05,SSW,194,1.0,6.0,78,0.00,,,0.00,0,Wunderground v.1.15,2013-08-06 07:02:00,
2013-08-06 03:07:00,73.1,65.8,30.05,SSW,205,5.0,7.0,78,0.00,,,0.00,0,Wunderground v.1.15,2013-08-06 07:07:00,
2013-08-06 03:12:00,73.2,65.9,30.05,South,173,2.0,7.0,78,0.00,,,0.00,0,Wunderground v.1.15,2013-08-06 07:12:00,
2013-08-06 03:17:00,73.3,65.7,30.04,SSE,156,1.0,8.0,77,0.00,,,0.00,0,Wunderground v.1.15,2013-08-06 07:17:00,
2013-08-06 03:22:00,73.3,66.0,30.05,South,188,3.0,7.0,78,0.00,,,0.00,0,Wunderground v.1.15,2013-08-06 07:22:00,
2013-08-06 03:27:00,73.3,65.7,30.05,South,181,2.0,7.0,77,0.00,,,0.00,0,Wunderground v.1.15,2013-08-06 07:27:00,
2013-08-06 03:32:00,73.2,65.9,30.05,SSW,213,3.0,6.0,78,0.00,,,0.00,0,Wunderground v.1.15,2013-08-06 07:32:00,
2013-08-06 03:37:00,73.2,65.9,30.05,South,182,6.0,7.0,78,0.00,,,0.00,0,Wunderground v.1.15,2013-08-06 07:37:00,
2013-08-06 03:42:00,73.3,65.7,30.05,South,183,3.0,5.0,77,0.00,,,0.00,0,Wunderground v.1.15,2013-08-06 07:42:00,
2013-08-06 03:47:00,73.1,65.8,30.05,SSW,200,1.0,7.0,78,0.00,,,0.00,0,Wunderground v.1.15,2013-08-06 07:47:00,
2013-08-06 03:52:00,73.0,65.7,30.05,South,190,1.0,6.0,78,0.00,,,0.00,0,Wunderground v.1.15,2013-08-06 07:52:00,
2013-08-06 03:57:00,72.9,65.6,30.05,SSE,164,2.0,6.0,78,0.00,,,0.00,0,Wunderground v.1.15,2013-08-06 07:57:00,
2013-08-06 04:02:00,73.0,65.7,30.05,South,184,0.0,2.0,78,0.00,,,0.00,0,Wunderground v.1.15,2013-08-06 08:02:00,
2013-08-06 04:07:00,72.9,65.6,30.05,SSW,192,6.0,7.0,78,0.00,,,0.00,0,Wunderground v.1.15,2013-08-06 08:07:00,
2013-08-06 04:12:00,73.0,65.4,30.05,South,175,2.0,5.0,77,0.00,,,0.00,0,Wunderground v.1.15,2013-08-06 08:12:00,
2013-08-06 04:17:00,73.0,65.7,30.05,SSW,193,1.0,5.0,78,0.00,,,0.00,0,Wunderground v.1.15,2013-08-06 08:17:00,
2013-08-06 04:22:00,72.8,65.5,30.05,South,190,6.0,6.0,78,0.00,,,0.00,0,Wunderground v.1.15,2013-08-06 08:22:00,
2013-08-06 04:28:00,72.8,65.5,30.05,South,185,1.0,6.0,78,0.00,,,0.00,0,Wunderground v.1.15,2013-08-06 08:28:00,
2013-08-06 04:33:00,72.7,65.4,30.05,South,190,4.0,4.0,78,0.00,,,0.00,0,Wunderground v.1.15,2013-08-06 08:33:00,
2013-08-06 04:38:00,72.6,65.3,30.06,SSW,195,3.0,7.0,78,0.00,,,0.00,0,Wunderground v.1.15,2013-08-06 08:38:00,
2013-08-06 04:43:00,72.5,65.2,30.05,SW,226,5.0,6.0,78,0.00,,,0.00,0,Wunderground v.1.15,2013-08-06 08:43:00,
2013-08-06 04:48:00,72.4,65.5,30.05,South,187,3.0,6.0,79,0.00,,,0.00,0,Wunderground v.1.15,2013-08-06 08:48:00,
2013-08-06 04:53:00,72.2,65.7,30.06,SSW,200,3.0,7.0,80,0.00,,,0.00,0,Wunderground v.1.15,2013-08-06 08:53:00,
2013-08-06 04:58:00,72.1,65.6,30.06,SW,216,5.0,7.0,80,0.00,,,0.00,0,Wunderground v.1.15,2013-08-06 08:58:00,
2013-08-06 05:03:00,72.1,65.6,30.05,South,189,3.0,6.0,80,0.00,,,0.00,0,Wunderground v.1.15,2013-08-06 09:03:00,
2013-08-06 05:08:00,72.0,65.5,30.05,South,185,2.0,6.0,80,0.00,,,0.00,0,Wunderground v.1.15,2013-08-06 09:08:00,
2013-08-06 05:13:00,72.0,65.5,30.05,SSW,195,6.0,8.0,80,0.00,,,0.00,0,Wunderground v.1.15,2013-08-06 09:13:00,
2013-08-06 05:18:00,71.9,65.4,30.05,SSW,192,3.0,8.0,80,0.00,,,0.00,0,Wunderground v.1.15,2013-08-06 09:18:00,
2013-08-06 05:23:00,71.9,65.4,30.05,SW,220,3.0,8.0,80,0.00,,,0.00,0,Wunderground v.1.15,2013-08-06 09:23:00,
2013-08-06 05:28:00,71.7,65.2,30.05,SSW,200,3.0,8.0,80,0.00,,,0.00,0,Wunderground v.1.15,2013-08-06 09:28:00,
2013-08-06 05:33:00,71.7,65.2,30.06,SW,219,4.0,9.0,80,0.00,,,0.00,0,Wunderground v.1.15,2013-08-06 09:33:00,
2013-08-06 05:38:00,71.7,65.2,30.06,South,169,4.0,9.0,80,0.00,,,0.00,0,Wunderground v.1.15,2013-08-06 09:38:00,
2013-08-06 05:43:00,71.6,65.1,30.07,SSW,211,5.0,11.0,80,0.00,,,0.00,0,Wunderground v.1.15,2013-08-06 09:43:00,
2013-08-06 05:48:00,71.5,65.0,30.07,SSW,203,7.0,11.0,80,0.00,,,0.00,0,Wunderground v.1.15,2013-08-06 09:48:00,
2013-08-06 05:53:00,71.4,64.2,30.07,WSW,240,15.0,15.0,78,0.00,,,0.00,0,Wunderground v.1.15,2013-08-06 09:53:00,
2013-08-06 05:58:00,71.5,64.3,30.08,SW,232,10.0,16.0,78,0.00,,,0.00,0,Wunderground v.1.15,2013-08-06 09:58:00,
2013-08-06 06:03:00,71.4,63.8,30.08,SSW,211,10.0,16.0,77,0.00,,,0.00,0,Wunderground v.1.15,2013-08-06 10:03:00,
2013-08-06 06:08:00,71.3,64.1,30.08,SW,227,5.0,16.0,78,0.00,,,0.00,0,Wunderground v.1.15,2013-08-06 10:08:00,
2013-08-06 06:13:00,71.1,63.9,30.08,SSW,207,2.0,7.0,78,0.00,,,0.00,0,Wunderground v.1.15,2013-08-06 10:13:00,
2013-08-06 06:18:00,70.9,64.1,30.08,SSW,194,4.0,13.0,79,0.00,,,0.00,0,Wunderground v.1.15,2013-08-06 10:18:00,
2013-08-06 06:23:00,70.8,64.3,30.08,SSW,198,3.0,8.0,80,0.00,,,0.00,0,Wunderground v.1.15,2013-08-06 10:23:00,
2013-08-06 06:28:00,70.6,64.1,30.08,SSW,207,4.0,9.0,80,0.00,,,0.00,0,Wunderground v.1.15,2013-08-06 10:28:00,
2013-08-06 06:33:00,70.4,64.3,30.08,SW,223,4.0,10.0,81,0.00,,,0.00,0,Wunderground v.1.15,2013-08-06 10:33:00,
2013-08-06 06:38:00,70.2,64.4,30.08,SW,216,1.0,10.0,82,0.00,,,0.01,0,Wunderground v.1.15,2013-08-06 10:38:00,
2013-08-06 06:43:00,69.2,64.5,30.08,South,189,4.0,7.0,85,0.19,,,0.02,0,Wunderground v.1.15,2013-08-06 10:43:00,
2013-08-06 06:48:00,68.2,64.5,30.08,South,191,3.0,9.0,88,0.15,,,0.03,0,Wunderground v.1.15,2013-08-06 10:48:00,
2013-08-06 06:53:00,67.7,64.7,30.08,South,187,2.0,7.0,90,0.07,,,0.03,0,Wunderground v.1.15,2013-08-06 10:53:00,
2013-08-06 06:58:00,67.4,64.7,30.08,SSW,210,1.0,7.0,91,0.04,,,0.03,5,Wunderground v.1.15,2013-08-06 10:58:00,
2013-08-06 07:03:00,67.3,64.9,30.08,WSW,240,5.0,7.0,92,0.00,,,0.03,9,Wunderground v.1.15,2013-08-06 11:03:00,
2013-08-06 07:09:00,67.3,64.9,30.09,SSW,200,1.0,7.0,92,0.00,,,0.03,16,Wunderground v.1.15,2013-08-06 11:09:00,
2013-08-06 07:14:00,67.3,64.9,30.09,SSE,167,2.0,5.0,92,0.00,,,0.03,26,Wunderground v.1.15,2013-08-06 11:14:00,
2013-08-06 07:19:00,67.4,65.0,30.08,SW,220,2.0,5.0,92,0.00,,,0.03,39,Wunderground v.1.15,2013-08-06 11:19:00,
2013-08-06 07:24:00,67.5,64.8,30.09,SSW,209,5.0,8.0,91,0.00,,,0.03,42,Wunderground v.1.15,2013-08-06 11:24:00,
2013-08-06 07:29:00,67.5,64.8,30.08,SW,236,5.0,8.0,91,0.00,,,0.03,60,Wunderground v.1.15,2013-08-06 11:29:00,
2013-08-06 07:34:00,67.4,64.7,30.08,WSW,247,4.0,11.0,91,0.00,,,0.03,54,Wunderground v.1.15,2013-08-06 11:34:00,
2013-08-06 07:39:00,67.6,64.6,30.09,SW,223,5.0,11.0,90,0.00,,,0.03,54,Wunderground v.1.15,2013-08-06 11:39:00,
2013-08-06 07:44:00,67.6,64.6,30.09,WSW,239,5.0,9.0,90,0.00,,,0.03,28,Wunderground v.1.15,2013-08-06 11:44:00,
2013-08-06 07:49:00,67.5,64.5,30.09,SW,219,7.0,9.0,90,0.00,,,0.03,42,Wunderground v.1.15,2013-08-06 11:49:00,
2013-08-06 07:54:00,67.6,64.6,30.09,South,190,5.0,6.0,90,0.00,,,0.03,47,Wunderground v.1.15,2013-08-06 11:54:00,
2013-08-06 07:59:00,67.6,64.6,30.10,WSW,243,5.0,6.0,90,0.00,,,0.03,60,Wunderground v.1.15,2013-08-06 11:59:00,
2013-08-06 08:04:00,67.7,64.7,30.09,South,187,3.0,4.0,90,0.00,,,0.03,63,Wunderground v.1.15,2013-08-06 12:04:00,
2013-08-06 08:09:00,67.7,64.7,30.10,SW,236,2.0,5.0,90,0.00,,,0.03,60,Wunderground v.1.15,2013-08-06 12:09:00,
2013-08-06 08:14:00,67.7,64.7,30.10,SW,232,2.0,5.0,90,0.00,,,0.03,62,Wunderground v.1.15,2013-08-06 12:14:00,
2013-08-06 08:19:00,67.7,65.0,30.09,South,189,3.0,5.0,91,0.00,,,0.03,74,Wunderground v.1.15,2013-08-06 12:19:00,
2013-08-06 08:24:00,67.8,64.8,30.10,WSW,248,2.0,7.0,90,0.00,,,0.03,90,Wunderground v.1.15,2013-08-06 12:24:00,
2013-08-06 08:29:00,68.0,65.0,30.10,West,265,0.0,7.0,90,0.00,,,0.03,120,Wunderground v.1.15,2013-08-06 12:29:00,
2013-08-06 08:34:00,68.2,65.2,30.09,SSW,198,2.0,5.0,90,0.00,,,0.03,104,Wunderground v.1.15,2013-08-06 12:34:00,
2013-08-06 08:39:00,68.4,65.0,30.09,SSW,210,4.0,6.0,89,0.00,,,0.03,125,Wunderground v.1.15,2013-08-06 12:39:00,
2013-08-06 08:44:00,68.7,65.0,30.09,SSW,200,2.0,5.0,88,0.00,,,0.03,156,Wunderground v.1.15,2013-08-06 12:44:00,
2013-08-06 08:50:00,68.9,65.2,30.09,SSW,196,4.0,4.0,88,0.00,,,0.03,169,Wunderground v.1.15,2013-08-06 12:50:00,
2013-08-06 08:55:00,69.1,65.4,30.09,SSW,203,3.0,7.0,88,0.00,,,0.03,200,Wunderground v.1.15,2013-08-06 12:55:00,
2013-08-06 09:01:00,69.9,65.5,30.09,WSW,246,4.0,4.0,86,0.00,,,0.03,492,Wunderground v.1.15,2013-08-06 13:01:00,
2013-08-06 09:07:00,70.6,66.2,30.09,West,265,3.0,7.0,86,0.00,,,0.03,547,Wunderground v.1.15,2013-08-06 13:07:00,
2013-08-06 09:12:00,70.7,65.6,30.09,SW,215,1.0,8.0,84,0.00,,,0.03,578,Wunderground v.1.15,2013-08-06 13:12:00,
2013-08-06 09:17:00,71.5,66.8,30.09,WSW,254,1.0,9.0,85,0.00,,,0.03,661,Wunderground v.1.15,2013-08-06 13:17:00,
2013-08-06 09:22:00,72.4,67.3,30.09,SSE,164,1.0,7.0,84,0.00,,,0.03,714,Wunderground v.1.15,2013-08-06 13:22:00,
2013-08-06 09:27:00,72.4,66.6,30.09,West,271,1.0,9.0,82,0.00,,,0.03,285,Wunderground v.1.15,2013-08-06 13:27:00,
2013-08-06 09:32:00,71.5,66.1,30.09,West,280,2.0,7.0,83,0.00,,,0.03,220,Wunderground v.1.15,2013-08-06 13:32:00,
2013-08-06 09:37:00,71.6,66.8,30.09,SSW,197,3.0,7.0,85,0.00,,,0.03,722,Wunderground v.1.15,2013-08-06 13:37:00,
2013-08-06 09:42:00,72.6,66.8,30.10,South,175,4.0,5.0,82,0.00,,,0.03,536,Wunderground v.1.15,2013-08-06 13:42:00,
2013-08-06 09:47:00,72.4,66.6,30.10,South,190,3.0,7.0,82,0.00,,,0.03,413,Wunderground v.1.15,2013-08-06 13:47:00,
2013-08-06 09:52:00,71.9,66.1,30.10,SW,221,7.0,7.0,82,0.00,,,0.03,246,Wunderground v.1.15,2013-08-06 13:52:00,
2013-08-06 09:57:00,71.4,65.6,30.10,SSW,202,3.0,8.0,82,0.00,,,0.03,179,Wunderground v.1.15,2013-08-06 13:57:00,
2013-08-06 10:02:00,71.2,65.8,30.10,South,174,2.0,4.0,83,0.00,,,0.03,155,Wunderground v.1.15,2013-08-06 14:02:00,
2013-08-06 10:07:00,71.1,66.4,30.10,SSW,204,0.0,4.0,85,0.00,,,0.03,135,Wunderground v.1.15,2013-08-06 14:07:00,
2013-08-06 10:12:00,71.0,66.6,30.10,SW,218,0.0,2.0,86,0.00,,,0.03,128,Wunderground v.1.15,2013-08-06 14:12:00,
2013-08-06 10:17:00,70.9,66.2,30.11,South,186,1.0,3.0,85,0.00,,,0.03,165,Wunderground v.1.15,2013-08-06 14:17:00,
2013-08-06 10:22:00,71.2,65.8,30.10,South,181,3.0,5.0,83,0.00,,,0.03,199,Wunderground v.1.15,2013-08-06 14:22:00,
2013-08-06 10:27:00,71.5,66.4,30.10,SSW,208,2.0,5.0,84,0.00,,,0.03,199,Wunderground v.1.15,2013-08-06 14:27:00,
2013-08-06 10:32:00,71.6,66.5,30.10,SSW,206,5.0,5.0,84,0.00,,,0.03,204,Wunderground v.1.15,2013-08-06 14:32:00,
2013-08-06 10:37:00,71.6,66.5,30.11,SSW,212,0.0,6.0,84,0.00,,,0.03,232,Wunderground v.1.15,2013-08-06 14:37:00,
2013-08-06 10:42:00,71.9,66.5,30.10,SSW,196,1.0,5.0,83,0.00,,,0.03,236,Wunderground v.1.15,2013-08-06 14:42:00,
2013-08-06 10:47:00,72.1,67.0,30.11,SSW,199,3.0,5.0,84,0.00,,,0.03,322,Wunderground v.1.15,2013-08-06 14:47:00,
2013-08-06 10:52:00,72.6,67.5,30.11,SW,222,3.0,3.0,84,0.00,,,0.03,369,Wunderground v.1.15,2013-08-06 14:52:00,
2013-08-06 10:57:00,73.1,67.6,30.11,SW,229,4.0,5.0,83,0.00,,,0.03,445,Wunderground v.1.15,2013-08-06 14:57:00,
2013-08-06 11:02:00,73.8,67.6,30.10,SSW,199,2.0,5.0,81,0.00,,,0.03,489,Wunderground v.1.15,2013-08-06 15:02:00,
2013-08-06 11:07:00,75.5,68.9,30.10,SSW,213,2.0,6.0,80,0.00,,,0.03,772,Wunderground v.1.15,2013-08-06 15:07:00,
2013-08-06 11:12:00,75.8,68.4,30.10,SSW,195,1.0,6.0,78,0.00,,,0.03,830,Wunderground v.1.15,2013-08-06 15:12:00,
2013-08-06 11:17:00,76.8,68.7,30.10,SSW,199,4.0,8.0,76,0.00,,,0.03,854,Wunderground v.1.15,2013-08-06 15:17:00,
2013-08-06 11:22:00,77.3,68.4,30.10,South,178,4.0,8.0,74,0.00,,,0.03,902,Wunderground v.1.15,2013-08-06 15:22:00,
2013-08-06 11:28:00,77.0,67.3,30.10,South,186,5.0,11.0,72,0.00,,,0.03,817,Wunderground v.1.15,2013-08-06 15:28:00,
2013-08-06 11:33:00,76.8,68.3,30.10,WSW,243,8.0,10.0,75,0.00,,,0.03,668,Wunderground v.1.15,2013-08-06 15:33:00,
2013-08-06 11:38:00,77.2,67.9,30.10,SSE,157,5.0,11.0,73,0.00,,,0.03,1176,Wunderground v.1.15,2013-08-06 15:38:00,
2013-08-06 11:43:00,77.5,68.6,30.10,SSW,198,2.0,9.0,74,0.00,,,0.03,598,Wunderground v.1.15,2013-08-06 15:43:00,
2013-08-06 11:48:00,77.6,69.0,30.10,SSE,161,1.0,9.0,75,0.00,,,0.03,591,Wunderground v.1.15,2013-08-06 15:48:00,
2013-08-06 11:53:00,78.1,69.1,30.10,South,170,2.0,7.0,74,0.00,,,0.03,693,Wunderground v.1.15,2013-08-06 15:53:00,
2013-08-06 11:58:00,77.8,68.0,30.10,SSE,163,4.0,10.0,72,0.00,,,0.03,471,Wunderground v.1.15,2013-08-06 15:58:00,
2013-08-06 12:03:00,77.4,68.9,30.10,SSW,212,5.0,8.0,75,0.00,,,0.03,529,Wunderground v.1.15,2013-08-06 16:03:00,
2013-08-06 12:08:00,78.0,69.4,30.10,SSW,192,5.0,8.0,75,0.00,,,0.03,1035,Wunderground v.1.15,2013-08-06 16:08:00,
2013-08-06 12:13:00,79.1,70.1,30.10,SSW,209,6.0,11.0,74,0.00,,,0.03,1048,Wunderground v.1.15,2013-08-06 16:13:00,
2013-08-06 12:18:00,79.6,70.6,30.10,SSW,205,3.0,11.0,74,0.00,,,0.03,1130,Wunderground v.1.15,2013-08-06 16:18:00,
2013-08-06 12:23:00,80.5,71.4,30.10,SSW,200,2.0,6.0,74,0.00,,,0.03,1297,Wunderground v.1.15,2013-08-06 16:23:00,
2013-08-06 12:28:00,79.7,69.0,30.10,SSW,202,5.0,11.0,70,0.00,,,0.03,497,Wunderground v.1.15,2013-08-06 16:28:00,
2013-08-06 12:33:00,79.0,70.8,30.10,West,279,2.0,4.0,76,0.00,,,0.03,394,Wunderground v.1.15,2013-08-06 16:33:00,
2013-08-06 12:38:00,78.4,69.0,30.09,WNW,294,0.0,7.0,73,0.00,,,0.03,357,Wunderground v.1.15,2013-08-06 16:38:00,
2013-08-06 12:43:00,78.1,68.7,30.10,SSW,194,5.0,6.0,73,0.00,,,0.03,367,Wunderground v.1.15,2013-08-06 16:43:00,
2013-08-06 12:48:00,78.1,68.3,30.10,South,190,3.0,8.0,72,0.00,,,0.03,494,Wunderground v.1.15,2013-08-06 16:48:00,
2013-08-06 12:53:00,78.6,69.2,30.10,South,170,4.0,8.0,73,0.00,,,0.03,494,Wunderground v.1.15,2013-08-06 16:53:00,
2013-08-06 12:58:00,78.9,69.1,30.09,SSW,211,2.0,8.0,72,0.00,,,0.03,541,Wunderground v.1.15,2013-08-06 16:58:00,
2013-08-06 13:03:00,79.0,68.8,30.09,South,189,2.0,7.0,71,0.00,,,0.03,587,Wunderground v.1.15,2013-08-06 17:03:00,
2013-08-06 13:08:00,79.1,69.3,30.09,South,184,3.0,10.0,72,0.00,,,0.03,485,Wunderground v.1.15,2013-08-06 17:08:00,
2013-08-06 13:13:00,79.3,69.5,30.09,SSE,157,3.0,9.0,72,0.00,,,0.03,506,Wunderground v.1.15,2013-08-06 17:13:00,
2013-08-06 13:18:00,79.0,69.2,30.09,SW,216,2.0,9.0,72,0.00,,,0.03,548,Wunderground v.1.15,2013-08-06 17:18:00,
2013-08-06 13:23:00,78.9,68.3,30.09,SSW,205,5.0,11.0,70,0.00,,,0.03,599,Wunderground v.1.15,2013-08-06 17:23:00,
2013-08-06 13:27:00,79.1,68.5,30.09,SW,221,4.0,11.0,70,0.00,,,0.03,497,Wunderground v.1.15,2013-08-06 17:27:00,
2013-08-06 13:32:00,79.2,67.3,30.09,West,278,2.0,13.0,67,0.00,,,0.03,446,Wunderground v.1.15,2013-08-06 17:32:00,
2013-08-06 13:37:00,78.5,67.5,30.09,WSW,246,1.0,13.0,69,0.00,,,0.03,541,Wunderground v.1.15,2013-08-06 17:37:00,
2013-08-06 13:42:00,78.8,67.8,30.09,SSW,203,2.0,9.0,69,0.00,,,0.03,439,Wunderground v.1.15,2013-08-06 17:42:00,
2013-08-06 13:47:00,78.6,68.0,30.09,SSW,206,5.0,9.0,70,0.00,,,0.03,362,Wunderground v.1.15,2013-08-06 17:47:00,
2013-08-06 13:52:00,78.9,68.7,30.09,SSW,198,6.0,7.0,71,0.00,,,0.03,508,Wunderground v.1.15,2013-08-06 17:52:00,
2013-08-06 13:57:00,80.0,70.6,30.09,West,269,7.0,7.0,73,0.00,,,0.03,1153,Wunderground v.1.15,2013-08-06 17:57:00,
2013-08-06 14:02:00,80.3,70.0,30.09,SW,221,6.0,6.0,71,0.00,,,0.03,1153,Wunderground v.1.15,2013-08-06 18:02:00,
2013-08-06 14:07:00,80.2,69.1,30.09,SSW,192,3.0,7.0,69,0.00,,,0.03,466,Wunderground v.1.15,2013-08-06 18:07:00,
2013-08-06 14:12:00,80.0,68.9,30.09,SSW,204,5.0,8.0,69,0.00,,,0.03,533,Wunderground v.1.15,2013-08-06 18:12:00,
2013-08-06 14:17:00,80.8,70.9,30.09,SW,236,7.0,9.0,72,0.00,,,0.03,445,Wunderground v.1.15,2013-08-06 18:17:00,
2013-08-06 14:22:00,79.7,69.0,30.08,SSW,205,4.0,10.0,70,0.00,,,0.03,309,Wunderground v.1.15,2013-08-06 18:22:00,
2013-08-06 14:27:00,78.9,68.7,30.09,SSW,199,8.0,10.0,71,0.00,,,0.03,313,Wunderground v.1.15,2013-08-06 18:27:00,
2013-08-06 14:32:00,78.9,69.9,30.08,South,174,2.0,4.0,74,0.00,,,0.03,371,Wunderground v.1.15,2013-08-06 18:32:00,
2013-08-06 14:37:00,79.7,70.3,30.09,SW,234,0.0,5.0,73,0.00,,,0.03,427,Wunderground v.1.15,2013-08-06 18:37:00,
2013-08-06 14:42:00,79.5,70.1,30.08,South,180,4.0,5.0,73,0.00,,,0.03,369,Wunderground v.1.15,2013-08-06 18:42:00,
2013-08-06 14:47:00,79.1,70.5,30.08,SSW,194,4.0,5.0,75,0.00,,,0.03,429,Wunderground v.1.15,2013-08-06 18:47:00,
2013-08-06 14:52:00,79.4,69.6,30.09,SSW,194,2.0,6.0,72,0.00,,,0.03,318,Wunderground v.1.15,2013-08-06 18:52:00,
2013-08-06 14:57:00,79.3,69.5,30.08,South,190,2.0,7.0,72,0.00,,,0.03,343,Wunderground v.1.15,2013-08-06 18:57:00,
2013-08-06 15:02:00,79.0,69.6,30.08,SSW,200,4.0,8.0,73,0.00,,,0.03,348,Wunderground v.1.15,2013-08-06 19:02:00,
2013-08-06 15:07:00,78.5,69.1,30.09,SSW,202,6.0,8.0,73,0.00,,,0.03,257,Wunderground v.1.15,2013-08-06 19:07:00,
2013-08-06 15:12:00,78.4,69.4,30.09,South,188,5.0,6.0,74,0.00,,,0.03,371,Wunderground v.1.15,2013-08-06 19:12:00,
2013-08-06 15:18:00,79.3,69.9,30.08,South,179,4.0,7.0,73,0.00,,,0.03,353,Wunderground v.1.15,2013-08-06 19:18:00,
2013-08-06 15:23:00,79.1,70.1,30.08,South,182,2.0,7.0,74,0.00,,,0.03,253,Wunderground v.1.15,2013-08-06 19:23:00,
2013-08-06 15:28:00,78.8,70.2,30.08,South,182,0.0,7.0,75,0.00,,,0.03,258,Wunderground v.1.15,2013-08-06 19:28:00,
2013-08-06 15:33:00,78.7,70.1,30.08,SSW,198,1.0,6.0,75,0.00,,,0.03,243,Wunderground v.1.15,2013-08-06 19:33:00,
2013-08-06 15:38:00,78.4,70.6,30.08,South,173,3.0,6.0,77,0.00,,,0.03,346,Wunderground v.1.15,2013-08-06 19:38:00,
2013-08-06 15:43:00,79.5,71.3,30.08,SSW,207,6.0,7.0,76,0.00,,,0.03,977,Wunderground v.1.15,2013-08-06 19:43:00,
2013-08-06 15:48:00,80.9,70.6,30.08,SSE,164,5.0,8.0,71,0.00,,,0.03,882,Wunderground v.1.15,2013-08-06 19:48:00,
2013-08-06 15:53:00,80.1,70.7,30.07,SSW,203,5.0,6.0,73,0.00,,,0.03,206,Wunderground v.1.15,2013-08-06 19:53:00,
2013-08-06 15:58:00,80.0,71.8,30.07,SSE,161,3.0,7.0,76,0.00,,,0.03,821,Wunderground v.1.15,2013-08-06 19:58:00,
2013-08-06 16:03:00,80.5,71.4,30.08,SSE,164,2.0,4.0,74,0.00,,,0.03,383,Wunderground v.1.15,2013-08-06 20:03:00,
2013-08-06 16:08:00,81.1,70.8,30.07,SSW,199,1.0,7.0,71,0.00,,,0.03,237,Wunderground v.1.15,2013-08-06 20:08:00,
2013-08-06 16:13:00,80.5,71.0,30.07,South,174,3.0,5.0,73,0.00,,,0.03,322,Wunderground v.1.15,2013-08-06 20:13:00,
2013-08-06 16:18:00,80.8,70.5,30.07,SSW,209,6.0,8.0,71,0.00,,,0.03,404,Wunderground v.1.15,2013-08-06 20:18:00,
2013-08-06 16:23:00,80.5,70.6,30.07,South,182,4.0,7.0,72,0.00,,,0.03,343,Wunderground v.1.15,2013-08-06 20:23:00,
2013-08-06 16:28:00,80.2,71.2,30.07,South,188,3.0,7.0,74,0.00,,,0.03,322,Wunderground v.1.15,2013-08-06 20:28:00,
2013-08-06 16:32:00,80.0,70.2,30.07,SSE,155,3.0,8.0,72,0.00,,,0.03,401,Wunderground v.1.15,2013-08-06 20:32:00,
2013-08-06 16:37:00,80.1,70.3,30.07,South,175,1.0,8.0,72,0.00,,,0.03,306,Wunderground v.1.15,2013-08-06 20:37:00,
2013-08-06 16:42:00,79.8,70.8,30.08,SSW,194,3.0,4.0,74,0.00,,,0.03,255,Wunderground v.1.15,2013-08-06 20:42:00,
2013-08-06 16:47:00,80.0,72.1,30.08,South,185,3.0,7.0,77,0.00,,,0.03,343,Wunderground v.1.15,2013-08-06 20:47:00,
2013-08-06 16:52:00,80.4,70.9,30.08,SSW,198,4.0,4.0,73,0.00,,,0.03,190,Wunderground v.1.15,2013-08-06 20:52:00,
2013-08-06 16:57:00,80.2,70.8,30.08,South,178,4.0,5.0,73,0.00,,,0.03,167,Wunderground v.1.15,2013-08-06 20:57:00,
2013-08-06 17:02:00,79.8,70.8,30.08,SSE,164,6.0,9.0,74,0.00,,,0.03,188,Wunderground v.1.15,2013-08-06 21:02:00,
2013-08-06 17:07:00,79.6,71.0,30.08,SSW,194,4.0,9.0,75,0.00,,,0.03,350,Wunderground v.1.15,2013-08-06 21:07:00,
2013-08-06 17:12:00,79.8,70.8,30.07,South,178,3.0,9.0,74,0.00,,,0.03,332,Wunderground v.1.15,2013-08-06 21:12:00,
2013-08-06 17:17:00,79.6,71.0,30.07,SSW,211,3.0,9.0,75,0.00,,,0.03,232,Wunderground v.1.15,2013-08-06 21:17:00,
2013-08-06 17:22:00,80.1,71.1,30.07,SSW,202,2.0,7.0,74,0.00,,,0.03,390,Wunderground v.1.15,2013-08-06 21:22:00,
2013-08-06 17:27:00,80.8,70.9,30.07,SSE,163,3.0,9.0,72,0.00,,,0.03,223,Wunderground v.1.15,2013-08-06 21:27:00,
2013-08-06 17:32:00,81.2,71.7,30.07,SSW,192,1.0,6.0,73,0.00,,,0.03,459,Wunderground v.1.15,2013-08-06 21:32:00,
2013-08-06 17:38:00,81.6,71.7,30.07,SSW,208,4.0,6.0,72,0.00,,,0.03,271,Wunderground v.1.15,2013-08-06 21:38:00,
2013-08-06 17:43:00,81.2,71.3,30.07,SSE,163,2.0,5.0,72,0.00,,,0.03,248,Wunderground v.1.15,2013-08-06 21:43:00,
2013-08-06 17:48:00,80.9,70.6,30.07,South,173,4.0,8.0,71,0.00,,,0.03,220,Wunderground v.1.15,2013-08-06 21:48:00,
2013-08-06 17:53:00,80.5,71.0,30.07,South,182,5.0,5.0,73,0.00,,,0.03,158,Wunderground v.1.15,2013-08-06 21:53:00,
2013-08-06 17:58:00,79.9,70.9,30.07,South,171,5.0,7.0,74,0.00,,,0.03,141,Wunderground v.1.15,2013-08-06 21:58:00,
2013-08-06 18:03:00,79.8,71.2,30.07,South,190,2.0,3.0,75,0.00,,,0.03,373,Wunderground v.1.15,2013-08-06 22:03:00,
2013-08-06 18:08:00,80.5,71.0,30.07,SE,143,3.0,9.0,73,0.00,,,0.03,415,Wunderground v.1.15,2013-08-06 22:08:00,
2013-08-06 18:13:00,80.5,71.0,30.07,SW,214,2.0,7.0,73,0.00,,,0.03,163,Wunderground v.1.15,2013-08-06 22:13:00,
2013-08-06 18:18:00,79.9,70.9,30.07,SSW,207,0.0,7.0,74,0.00,,,0.03,102,Wunderground v.1.15,2013-08-06 22:18:00,
2013-08-06 18:23:00,79.6,70.6,30.07,South,184,1.0,5.0,74,0.00,,,0.03,70,Wunderground v.1.15,2013-08-06 22:23:00,
2013-08-06 18:28:00,79.3,70.3,30.07,South,189,2.0,6.0,74,0.00,,,0.03,54,Wunderground v.1.15,2013-08-06 22:28:00,
2013-08-06 18:33:00,78.7,70.1,30.07,South,189,2.0,6.0,75,0.00,,,0.03,35,Wunderground v.1.15,2013-08-06 22:33:00,
2013-08-06 18:38:00,78.2,70.4,30.07,South,186,1.0,6.0,77,0.00,,,0.03,35,Wunderground v.1.15,2013-08-06 22:38:00,
2013-08-06 18:43:00,77.9,69.7,30.08,SSW,205,4.0,5.0,76,0.00,,,0.03,39,Wunderground v.1.15,2013-08-06 22:43:00,
2013-08-06 18:48:00,77.8,69.6,30.08,SW,234,3.0,7.0,76,0.00,,,0.03,35,Wunderground v.1.15,2013-08-06 22:48:00,
2013-08-06 18:53:00,77.7,69.5,30.08,South,191,2.0,5.0,76,0.00,,,0.03,23,Wunderground v.1.15,2013-08-06 22:53:00,
2013-08-06 18:58:00,77.7,69.5,30.08,SSW,206,4.0,6.0,76,0.00,,,0.03,18,Wunderground v.1.15,2013-08-06 22:58:00,
2013-08-06 19:03:00,77.6,69.4,30.08,South,178,1.0,4.0,76,0.00,,,0.03,25,Wunderground v.1.15,2013-08-06 23:03:00,
2013-08-06 19:08:00,77.7,69.5,30.08,South,179,2.0,4.0,76,0.00,,,0.03,28,Wunderground v.1.15,2013-08-06 23:08:00,
2013-08-06 19:13:00,77.6,69.4,30.08,SSW,198,4.0,4.0,76,0.00,,,0.03,35,Wunderground v.1.15,2013-08-06 23:13:00,
2013-08-06 19:18:00,77.5,69.3,30.08,SSW,204,2.0,5.0,76,0.00,,,0.03,35,Wunderground v.1.15,2013-08-06 23:18:00,
2013-08-06 19:23:00,77.4,68.9,30.08,SSW,200,5.0,6.0,75,0.00,,,0.03,30,Wunderground v.1.15,2013-08-06 23:23:00,
2013-08-06 19:28:00,77.1,68.6,30.08,SW,215,3.0,6.0,75,0.00,,,0.03,23,Wunderground v.1.15,2013-08-06 23:28:00,
2013-08-06 19:33:00,77.1,68.6,30.08,South,183,3.0,4.0,75,0.00,,,0.03,16,Wunderground v.1.15,2013-08-06 23:33:00,
2013-08-06 19:38:00,77.1,68.2,30.08,SSW,202,5.0,6.0,74,0.00,,,0.03,12,Wunderground v.1.15,2013-08-06 23:38:00,
2013-08-06 19:43:00,76.9,68.4,30.09,South,169,2.0,3.0,75,0.00,,,0.03,9,Wunderground v.1.15,2013-08-06 23:43:00,
2013-08-06 19:48:00,77.0,68.1,30.09,South,185,0.0,5.0,74,0.00,,,0.03,7,Wunderground v.1.15,2013-08-06 23:48:00,
2013-08-06 19:53:00,76.9,68.4,30.09,SSW,197,2.0,4.0,75,0.00,,,0.03,5,Wunderground v.1.15,2013-08-06 23:53:00,
2013-08-06 19:58:00,76.7,68.2,30.09,SSW,196,4.0,5.0,75,0.00,,,0.03,0,Wunderground v.1.15,2013-08-06 23:58:00,
2013-08-06 20:04:00,76.6,68.1,30.09,SSW,194,2.0,4.0,75,0.00,,,0.03,0,Wunderground v.1.15,2013-08-07 00:04:00,
2013-08-06 20:09:00,76.6,68.5,30.09,South,175,1.0,4.0,76,0.00,,,0.03,0,Wunderground v.1.15,2013-08-07 00:09:00,
2013-08-06 20:14:00,76.3,68.6,30.09,SSW,202,0.0,3.0,77,0.00,,,0.03,0,Wunderground v.1.15,2013-08-07 00:14:00,
2013-08-06 20:19:00,76.0,69.0,30.09,SSW,202,0.0,3.0,79,0.00,,,0.03,0,Wunderground v.1.15,2013-08-07 00:19:00,
2013-08-06 20:24:00,75.8,68.8,30.10,SSW,202,0.0,1.0,79,0.00,,,0.03,0,Wunderground v.1.15,2013-08-07 00:24:00,
2013-08-06 20:29:00,75.8,68.8,30.10,SSW,202,0.0,1.0,79,0.00,,,0.03,0,Wunderground v.1.15,2013-08-07 00:29:00,
2013-08-06 20:34:00,75.6,68.6,30.09,SSW,202,1.0,1.0,79,0.00,,,0.03,0,Wunderground v.1.15,2013-08-07 00:34:00,
2013-08-06 20:39:00,75.8,68.8,30.10,SSW,202,0.0,2.0,79,0.00,,,0.03,0,Wunderground v.1.15,2013-08-07 00:39:00,
2013-08-06 20:44:00,76.1,68.7,30.10,SSW,202,1.0,2.0,78,0.00,,,0.03,0,Wunderground v.1.15,2013-08-07 00:44:00,
2013-08-06 20:49:00,76.2,69.2,30.10,SSW,202,1.0,2.0,79,0.00,,,0.03,0,Wunderground v.1.15,2013-08-07 00:49:00,
2013-08-06 20:54:00,75.8,69.2,30.09,SSW,202,0.0,2.0,80,0.00,,,0.03,0,Wunderground v.1.15,2013-08-07 00:54:00,
2013-08-06 20:59:00,75.1,69.2,30.09,SSW,202,0.0,2.0,82,0.00,,,0.03,0,Wunderground v.1.15,2013-08-07 00:59:00,
2013-08-06 21:04:00,74.2,69.4,30.09,SSW,202,0.0,1.0,85,0.00,,,0.03,0,Wunderground v.1.15,2013-08-07 01:04:00,
2013-08-06 21:09:00,73.8,69.7,30.09,SSW,202,0.0,1.0,87,0.00,,,0.03,0,Wunderground v.1.15,2013-08-07 01:09:00,
2013-08-06 21:14:00,73.5,69.7,30.09,SSW,202,0.0,0.0,88,0.00,,,0.03,0,Wunderground v.1.15,2013-08-07 01:14:00,
2013-08-06 21:19:00,73.4,69.6,30.09,SSW,202,0.0,1.0,88,0.00,,,0.03,0,Wunderground v.1.15,2013-08-07 01:19:00,
2013-08-06 21:24:00,73.1,69.7,30.09,SSW,202,0.0,1.0,89,0.00,,,0.03,0,Wunderground v.1.15,2013-08-07 01:24:00,
2013-08-06 21:29:00,72.7,69.6,30.10,SSW,202,0.0,1.0,90,0.00,,,0.03,0,Wunderground v.1.15,2013-08-07 01:29:00,
2013-08-06 21:34:00,72.8,70.0,30.10,SSW,202,0.0,0.0,91,0.00,,,0.03,0,Wunderground v.1.15,2013-08-07 01:34:00,
2013-08-06 21:39:00,73.0,70.2,30.10,SSW,202,0.0,0.0,91,0.00,,,0.03,0,Wunderground v.1.15,2013-08-07 01:39:00,
2013-08-06 21:44:00,73.7,70.6,30.11,SSW,202,0.0,1.0,90,0.00,,,0.03,0,Wunderground v.1.15,2013-08-07 01:44:00,
2013-08-06 21:49:00,73.5,70.4,30.11,SSW,202,0.0,1.0,90,0.00,,,0.03,0,Wunderground v.1.15,2013-08-07 01:49:00,
2013-08-06 21:54:00,73.6,70.8,30.11,SSW,202,0.0,1.0,91,0.00,,,0.03,0,Wunderground v.1.15,2013-08-07 01:54:00,
2013-08-06 21:59:00,74.0,70.6,30.11,SSW,202,0.0,2.0,89,0.00,,,0.03,0,Wunderground v.1.15,2013-08-07 01:59:00,
2013-08-06 22:04:00,74.2,70.7,30.11,SSW,202,1.0,1.0,89,0.00,,,0.03,0,Wunderground v.1.15,2013-08-07 02:04:00,
2013-08-06 22:09:00,74.2,70.7,30.11,SSW,202,1.0,1.0,89,0.00,,,0.03,0,Wunderground v.1.15,2013-08-07 02:09:00,
2013-08-06 22:14:00,74.0,70.6,30.11,SSW,202,0.0,1.0,89,0.00,,,0.03,0,Wunderground v.1.15,2013-08-07 02:14:00,
2013-08-06 22:19:00,73.0,69.9,30.11,SSW,202,0.0,1.0,90,0.00,,,0.03,0,Wunderground v.1.15,2013-08-07 02:19:00,
2013-08-06 22:24:00,72.2,69.7,30.11,SSW,202,0.0,1.0,92,0.00,,,0.03,0,Wunderground v.1.15,2013-08-07 02:24:00,
2013-08-06 22:29:00,71.6,69.5,30.11,SSW,202,0.0,1.0,93,0.00,,,0.03,0,Wunderground v.1.15,2013-08-07 02:29:00,
2013-08-06 22:34:00,71.3,69.2,30.11,SSW,202,0.0,0.0,93,0.00,,,0.03,0,Wunderground v.1.15,2013-08-07 02:34:00,
2013-08-06 22:39:00,71.3,69.5,30.11,SSW,202,0.0,0.0,94,0.00,,,0.03,0,Wunderground v.1.15,2013-08-07 02:39:00,
2013-08-06 22:44:00,71.0,69.2,30.12,SSW,202,0.0,0.0,94,0.00,,,0.03,0,Wunderground v.1.15,2013-08-07 02:44:00,
2013-08-06 22:49:00,71.0,69.2,30.12,SSW,202,0.0,0.0,94,0.00,,,0.03,0,Wunderground v.1.15,2013-08-07 02:49:00,
2013-08-06 22:54:00,71.0,69.2,30.12,SSW,202,0.0,0.0,94,0.00,,,0.03,0,Wunderground v.1.15,2013-08-07 02:54:00,
2013-08-06 22:59:00,70.7,68.9,30.12,SSW,202,0.0,0.0,94,0.00,,,0.03,0,Wunderground v.1.15,2013-08-07 02:59:00,
2013-08-06 23:04:00,70.8,69.3,30.11,SSW,202,0.0,1.0,95,0.00,,,0.03,0,Wunderground v.1.15,2013-08-07 03:04:00,
2013-08-06 23:09:00,71.0,69.5,30.11,SSW,202,1.0,1.0,95,0.00,,,0.03,0,Wunderground v.1.15,2013-08-07 03:09:00,
2013-08-06 23:14:00,71.2,69.4,30.11,SSW,202,0.0,1.0,94,0.00,,,0.03,0,Wunderground v.1.15,2013-08-07 03:14:00,
2013-08-06 23:19:00,70.9,69.1,30.11,SSW,202,0.0,1.0,94,0.00,,,0.03,0,Wunderground v.1.15,2013-08-07 03:19:00,
2013-08-06 23:25:00,70.8,69.0,30.11,SSW,202,0.0,1.0,94,0.00,,,0.03,0,Wunderground v.1.15,2013-08-07 03:25:00,
2013-08-06 23:30:00,70.5,69.0,30.11,SSW,202,0.0,0.0,95,0.00,,,0.03,0,Wunderground v.1.15,2013-08-07 03:30:00,
2013-08-06 23:35:00,70.4,68.9,30.11,SSW,202,0.0,0.0,95,0.00,,,0.03,0,Wunderground v.1.15,2013-08-07 03:35:00,
2013-08-06 23:40:00,70.4,68.9,30.11,SSW,202,0.0,0.0,95,0.00,,,0.03,0,Wunderground v.1.15,2013-08-07 03:40:00,
2013-08-06 23:45:00,70.3,68.8,30.11,SSW,202,0.0,0.0,95,0.00,,,0.03,0,Wunderground v.1.15,2013-08-07 03:45:00,
2013-08-06 23:50:00,70.1,68.6,30.11,SSW,202,0.0,0.0,95,0.00,,,0.03,0,Wunderground v.1.15,2013-08-07 03:50:00,
2013-08-06 23:55:00,70.0,68.5,30.11,SSW,202,0.0,1.0,95,0.00,,,0.03,0,Wunderground v.1.15,2013-08-07 03:55:00,